Kayare, Texas
Current Conditions -  °F | °C
As of 8:52 PM on Wednesday 22 Oct 2014 (Local Time) from KHRL Reporting Station
Clear Clear  
Wind Chill: 73°   Ceiling: Unl
Heat Index: 73°   Visibility: 10mi
Dew Point: 69°   Wind: 8mph
Humidity: 87%   Direction: 50°NE
Pressure: 30.01"   Gusts: NA
Location:  26.2089°N, 97.6849°W
Report Text: KHRL 230152Z 05007KT 10SM CLR 23/21 A3001 RMK AO2 RAB36E45 SLP161 P0001 T02280206
Loading
Personal Weather Stations






























Interactive Weather Map
Tropical Storm Tracking
New forecast layout! Learn more

10-Day Weather Forecast

Advertisements
Track Severe Weather on mobile